Cosco Tengfei — HPMO — position and weather

sailwx.info

Track history (hours):
 
Tides and Currents Weather Stations Pressure Air Temp Water Temp Dewpoint Dewpoint Depression Visibility Wind Speed Wind Dir Waves Ship Positions

Cosco Tengfei

Last reported at 2015-Feb-10 20:27 UTC. Time now 2015-Mar-04 20:19 UTC.
Position N 01°10' E 103°46'.
Warning: this ship's position is 21 days out of date.

Length 183 m; draft 8.8 m.

Type: Cargo ship. MMSI: 355518000.

Date/timePositionNaut miles runAvg speedWind from/ knotsBaromVisibWave heightAir tempDewpointWater temp
2015-Feb-10 20:27N 01°10' E 103°46'13 0.7
2015-Feb-10 03:30N 01°16' E 103°58'  
2015-Feb-05 03:25N 23°32' E 117°51'1515.6
2015-Feb-05 02:25N 23°45' E 118°01'1515.4
2015-Feb-05 01:26N 23°56' E 118°12'1515.8
2015-Feb-05 00:27N 24°06' E 118°25'3014.2
2015-Feb-04 22:21N 24°25' E 118°50'1214.9
2015-Feb-04 21:33N 24°32' E 119°00'1714.9
2015-Feb-04 20:26N 24°43' E 119°14'2915.3
2015-Feb-04 18:31N 25°03' E 119°39'29515.2
2015-Feb-03 23:07N 29°12' E 122°36'2415.2
2015-Feb-03 21:32N 29°33' E 122°49'9511.9
2015-Feb-03 13:33N 31°06' E 122°26'9 9.5
2015-Feb-03 12:33N 31°08' E 122°15'1313.4
2015-Feb-03 11:34N 31°14' E 122°02'1514.9
2015-Feb-03 10:34N 31°19' E 121°45'1212.2
2015-Feb-03 09:33N 31°24' E 121°32'1010.5
2015-Feb-03 08:34N 31°31' E 121°23'1414.3
2015-Feb-03 07:33N 31°41' E 121°11'1613.7
2015-Feb-03 06:23N 31°49' E 120°55'1114.0
2015-Feb-03 05:33N 31°60' E 120°49'1413.7
2015-Feb-03 04:33N 32°01' E 120°33'6 5.9
2015-Feb-03 03:31N 31°58' E 120°26'0 0.0
2015-Feb-03 02:25N 31°58' E 120°26'0 0.0
2015-Feb-03 01:31N 31°58' E 120°26'0 0.0
2015-Feb-03 00:25N 31°58' E 120°26'0 0.0
2015-Feb-02 22:09N 31°58' E 120°26'0 0.0
2015-Feb-02 21:27N 31°58' E 120°26'0 0.0
2015-Feb-02 17:21N 31°58' E 120°26'0 0.0
2015-Feb-02 16:19N 31°58' E 120°26'0 0.0
2015-Feb-02 15:31N 31°58' E 120°26'0 0.0
2015-Feb-02 14:31N 31°58' E 120°26'0 0.0
2015-Feb-02 13:25N 31°58' E 120°26'0 0.0
2015-Feb-02 12:18N 31°58' E 120°26'0 0.0
2015-Feb-02 11:30N 31°58' E 120°26'0 0.0
2015-Feb-02 10:31N 31°58' E 120°26'1 0.5
2015-Feb-02 09:33N 31°58' E 120°26'5 5.5
2015-Feb-02 08:33N 32°02' E 120°30'1312.9
2015-Feb-02 07:33N 32°01' E 120°45'1313.1
2015-Feb-02 06:34N 31°50' E 120°54'1413.8
2015-Feb-02 05:33N 31°43' E 121°08'1514.7
2015-Feb-02 04:33N 31°33' E 121°21'1211.5
2015-Feb-02 03:33N 31°25' E 121°31'1110.7
2015-Feb-02 02:32N 31°19' E 121°42'1 0.7
2015-Feb-02 01:33N 31°19' E 121°41'0 0.1
2015-Feb-02 00:33N 31°19' E 121°41'0 0.0
2015-Feb-01 23:33N 31°19' E 121°41'0 0.0
2015-Feb-01 22:33N 31°19' E 121°41'0 0.0
2015-Feb-01 21:32N 31°19' E 121°41'0 0.1
2015-Feb-01 20:32N 31°19' E 121°41'0 0.0
2015-Feb-01 19:33N 31°19' E 121°41'0 0.0
2015-Feb-01 18:30N 31°19' E 121°41'0 0.0
2015-Feb-01 17:32N 31°19' E 121°41'0 0.0
2015-Feb-01 16:30N 31°19' E 121°41'0 0.1
2015-Feb-01 15:32N 31°19' E 121°41'0 0.0
2015-Feb-01 14:33N 31°19' E 121°41'0 0.1
2015-Feb-01 13:32N 31°19' E 121°41'0 0.0
2015-Feb-01 12:32N 31°19' E 121°41'0 0.1
2015-Feb-01 11:33N 31°19' E 121°41'0 0.0
2015-Feb-01 10:29N 31°19' E 121°41'0 0.0
2015-Feb-01 09:32N 31°19' E 121°41'0 0.0
2015-Feb-01 08:32N 31°19' E 121°41'0 0.0
2015-Feb-01 07:33N 31°19' E 121°41'0 0.1
2015-Feb-01 06:32N 31°19' E 121°41'0 0.0
2015-Feb-01 05:32N 31°19' E 121°41'0 0.0
2015-Feb-01 04:32N 31°19' E 121°41'0 0.0
2015-Feb-01 03:23N 31°19' E 121°41'1 0.8
2015-Feb-01 02:33N 31°20' E 121°42'9 9.3
2015-Feb-01 01:33N 31°16' E 121°52'1111.0
2015-Feb-01 00:33N 31°14' E 122°04'1111.2
2015-Jan-31 23:33N 31°08' E 122°15'9 9.4
2015-Jan-31 22:33N 31°07' E 122°26'  
Track history (hours):
 
Tides and Currents Weather Stations Pressure Air Temp Water Temp Dewpoint Dewpoint Depression Visibility Wind Speed Wind Dir Waves Ship Positions

Cosco Tengfei

Last reported at 2015-Feb-10 20:27 UTC. Time now 2015-Mar-04 20:19 UTC.
Position N 01°10' E 103°46'.
Warning: this ship's position is 21 days out of date.

Length 183 m; draft 8.8 m.

Type: Cargo ship. MMSI: 355518000.

Date/timePositionNaut miles runAvg speedWind from/ knotsBaromVisibWave heightAir tempDewpointWater temp
2015-Feb-10 20:27N 01°10' E 103°46'13 0.7
2015-Feb-10 03:30N 01°16' E 103°58'  
2015-Feb-05 03:25N 23°32' E 117°51'1515.6
2015-Feb-05 02:25N 23°45' E 118°01'1515.4
2015-Feb-05 01:26N 23°56' E 118°12'1515.8
2015-Feb-05 00:27N 24°06' E 118°25'3014.2
2015-Feb-04 22:21N 24°25' E 118°50'1214.9
2015-Feb-04 21:33N 24°32' E 119°00'1714.9
2015-Feb-04 20:26N 24°43' E 119°14'2915.3
2015-Feb-04 18:31N 25°03' E 119°39'29515.2
2015-Feb-03 23:07N 29°12' E 122°36'2415.2
2015-Feb-03 21:32N 29°33' E 122°49'9511.9
2015-Feb-03 13:33N 31°06' E 122°26'9 9.5
2015-Feb-03 12:33N 31°08' E 122°15'1313.4
2015-Feb-03 11:34N 31°14' E 122°02'1514.9
2015-Feb-03 10:34N 31°19' E 121°45'1212.2
2015-Feb-03 09:33N 31°24' E 121°32'1010.5
2015-Feb-03 08:34N 31°31' E 121°23'1414.3
2015-Feb-03 07:33N 31°41' E 121°11'1613.7
2015-Feb-03 06:23N 31°49' E 120°55'1114.0
2015-Feb-03 05:33N 31°60' E 120°49'1413.7
2015-Feb-03 04:33N 32°01' E 120°33'6 5.9
2015-Feb-03 03:31N 31°58' E 120°26'0 0.0
2015-Feb-03 02:25N 31°58' E 120°26'0 0.0
2015-Feb-03 01:31N 31°58' E 120°26'0 0.0
2015-Feb-03 00:25N 31°58' E 120°26'0 0.0
2015-Feb-02 22:09N 31°58' E 120°26'0 0.0
2015-Feb-02 21:27N 31°58' E 120°26'0 0.0
2015-Feb-02 17:21N 31°58' E 120°26'0 0.0
2015-Feb-02 16:19N 31°58' E 120°26'0 0.0
2015-Feb-02 15:31N 31°58' E 120°26'0 0.0
2015-Feb-02 14:31N 31°58' E 120°26'0 0.0
2015-Feb-02 13:25N 31°58' E 120°26'0 0.0
2015-Feb-02 12:18N 31°58' E 120°26'0 0.0
2015-Feb-02 11:30N 31°58' E 120°26'0 0.0
2015-Feb-02 10:31N 31°58' E 120°26'1 0.5
2015-Feb-02 09:33N 31°58' E 120°26'5 5.5
2015-Feb-02 08:33N 32°02' E 120°30'1312.9
2015-Feb-02 07:33N 32°01' E 120°45'1313.1
2015-Feb-02 06:34N 31°50' E 120°54'1413.8
2015-Feb-02 05:33N 31°43' E 121°08'1514.7
2015-Feb-02 04:33N 31°33' E 121°21'1211.5
2015-Feb-02 03:33N 31°25' E 121°31'1110.7
2015-Feb-02 02:32N 31°19' E 121°42'1 0.7
2015-Feb-02 01:33N 31°19' E 121°41'0 0.1
2015-Feb-02 00:33N 31°19' E 121°41'0 0.0
2015-Feb-01 23:33N 31°19' E 121°41'0 0.0
2015-Feb-01 22:33N 31°19' E 121°41'0 0.0
2015-Feb-01 21:32N 31°19' E 121°41'0 0.1
2015-Feb-01 20:32N 31°19' E 121°41'0 0.0
2015-Feb-01 19:33N 31°19' E 121°41'0 0.0
2015-Feb-01 18:30N 31°19' E 121°41'0 0.0
2015-Feb-01 17:32N 31°19' E 121°41'0 0.0
2015-Feb-01 16:30N 31°19' E 121°41'0 0.1
2015-Feb-01 15:32N 31°19' E 121°41'0 0.0
2015-Feb-01 14:33N 31°19' E 121°41'0 0.1
2015-Feb-01 13:32N 31°19' E 121°41'0 0.0
2015-Feb-01 12:32N 31°19' E 121°41'0 0.1
2015-Feb-01 11:33N 31°19' E 121°41'0 0.0
2015-Feb-01 10:29N 31°19' E 121°41'0 0.0
2015-Feb-01 09:32N 31°19' E 121°41'0 0.0
2015-Feb-01 08:32N 31°19' E 121°41'0 0.0
2015-Feb-01 07:33N 31°19' E 121°41'0 0.1
2015-Feb-01 06:32N 31°19' E 121°41'0 0.0
2015-Feb-01 05:32N 31°19' E 121°41'0 0.0
2015-Feb-01 04:32N 31°19' E 121°41'0 0.0
2015-Feb-01 03:23N 31°19' E 121°41'1 0.8
2015-Feb-01 02:33N 31°20' E 121°42'9 9.3
2015-Feb-01 01:33N 31°16' E 121°52'1111.0
2015-Feb-01 00:33N 31°14' E 122°04'1111.2
2015-Jan-31 23:33N 31°08' E 122°15'9 9.4
2015-Jan-31 22:33N 31°07' E 122°26'  

Dump ship's entire track history